Dai15hakuryomaru — JD2439 — position and weather

sailwx.info

Track history (hours):
 
Tides and Currents Weather Stations Pressure Air Temp Water Temp Dewpoint Dewpoint Depression Visibility Wind Speed Wind Dir Waves Ship Positions

Dai15hakuryomaru

Last reported at 2015-Feb-21 08:30 UTC. Time now 2015-Feb-26 23:20 UTC.
Position N 34°37' E 134°56'.

Length 80 m; draft 5.4 m.

Type: Tanker. MMSI: 431000243.

Date/timePositionNaut miles runAvg speedWind from/ knotsBaromVisibWave heightAir tempDewpointWater temp
2015-Feb-21 08:30N 34°37' E 134°56'8 8.9
2015-Feb-21 07:33N 34°36' E 135°06'1212.0
2015-Feb-21 06:33N 34°33' E 135°21'3 0.5
2015-Feb-20 23:24N 34°32' E 135°24'5 5.5
2015-Feb-20 22:33N 34°32' E 135°19'0 0.0
2015-Feb-20 21:34N 34°32' E 135°19'0 0.0
2015-Feb-20 20:34N 34°32' E 135°19'0 0.0
2015-Feb-20 19:33N 34°32' E 135°19'0 0.0
2015-Feb-20 18:33N 34°32' E 135°19'0 0.0
2015-Feb-20 17:33N 34°32' E 135°19'0 0.0
2015-Feb-20 16:33N 34°32' E 135°19'0 0.0
2015-Feb-20 15:34N 34°32' E 135°19'0 0.0
2015-Feb-20 14:34N 34°32' E 135°19'0 0.0
2015-Feb-20 13:33N 34°32' E 135°19'0 0.0
2015-Feb-20 12:34N 34°32' E 135°19'1 0.7
2015-Feb-20 11:33N 34°32' E 135°18'1313.1
2015-Feb-20 10:33N 34°36' E 135°03'27 1.1
2015-Feb-19 10:12N 34°09' E 135°01'6 8.6
2015-Feb-19 09:31N 34°07' E 135°08'0 0.0
2015-Feb-19 08:31N 34°07' E 135°08'0 0.0
2015-Feb-19 07:33N 34°07' E 135°08'0 0.0
2015-Feb-19 06:33N 34°07' E 135°08'0 0.0
2015-Feb-19 05:33N 34°07' E 135°08'1 1.2
2015-Feb-19 04:33N 34°08' E 135°07'3 2.7
2015-Feb-19 03:34N 34°09' E 135°09'0 0.0
2015-Feb-19 02:33N 34°09' E 135°09'0 0.0
2015-Feb-19 01:30N 34°09' E 135°09'0 0.0
2015-Feb-19 00:34N 34°09' E 135°09'0 0.0
2015-Feb-18 23:34N 34°09' E 135°09'0 0.0
2015-Feb-18 22:34N 34°09' E 135°09'0 0.0
2015-Feb-18 21:33N 34°09' E 135°09'3 3.2
2015-Feb-18 20:34N 34°10' E 135°05'1110.7
2015-Feb-18 19:32N 34°20' E 134°59'1313.3
2015-Feb-18 18:32N 34°33' E 135°03'  
2015-Feb-15 15:32N 34°37' E 134°56'8 8.2
2015-Feb-15 14:33N 34°35' E 135°05'2310.8
2015-Feb-15 12:28N 34°13' E 134°59'230 8.5
2015-Feb-14 09:26N 35°03' E 139°32'1112.0
2015-Feb-14 08:33N 35°09' E 139°43'1110.9
2015-Feb-14 07:34N 35°20' E 139°42'6 5.7
2015-Feb-14 06:33N 35°25' E 139°39'0 0.0
2015-Feb-14 05:34N 35°25' E 139°39'0 0.0
2015-Feb-14 04:34N 35°25' E 139°39'3 2.7
2015-Feb-14 03:33N 35°22' E 139°40'0 0.0
2015-Feb-14 02:33N 35°22' E 139°40'0 0.0
2015-Feb-14 01:33N 35°22' E 139°41'0 0.0
2015-Feb-14 00:33N 35°22' E 139°41'0 0.0
2015-Feb-13 23:33N 35°22' E 139°41'0 0.0
2015-Feb-13 22:33N 35°22' E 139°41'0 0.0
2015-Feb-13 21:33N 35°22' E 139°41'0 0.0
2015-Feb-13 20:33N 35°22' E 139°41'0 0.0
2015-Feb-13 19:34N 35°22' E 139°41'0 0.0
2015-Feb-13 18:33N 35°22' E 139°41'0 0.0
2015-Feb-13 17:34N 35°22' E 139°41'0 0.0
2015-Feb-13 16:33N 35°22' E 139°41'6 6.0
2015-Feb-13 15:33N 35°17' E 139°45'1212.3
2015-Feb-13 14:34N 35°05' E 139°44'10 0.4
2015-Feb-12 12:18N 35°04' E 139°32'810.8
2015-Feb-12 11:34N 35°07' E 139°41'1010.0
2015-Feb-12 10:31N 35°17' E 139°45'1010.0
2015-Feb-12 09:33N 35°26' E 139°46'12 2.0
2015-Feb-12 03:19N 35°31' E 139°59'  
Track history (hours):
 
Tides and Currents Weather Stations Pressure Air Temp Water Temp Dewpoint Dewpoint Depression Visibility Wind Speed Wind Dir Waves Ship Positions

Dai15hakuryomaru

Last reported at 2015-Feb-21 08:30 UTC. Time now 2015-Feb-26 23:20 UTC.
Position N 34°37' E 134°56'.

Length 80 m; draft 5.4 m.

Type: Tanker. MMSI: 431000243.

Date/timePositionNaut miles runAvg speedWind from/ knotsBaromVisibWave heightAir tempDewpointWater temp
2015-Feb-21 08:30N 34°37' E 134°56'8 8.9
2015-Feb-21 07:33N 34°36' E 135°06'1212.0
2015-Feb-21 06:33N 34°33' E 135°21'3 0.5
2015-Feb-20 23:24N 34°32' E 135°24'5 5.5
2015-Feb-20 22:33N 34°32' E 135°19'0 0.0
2015-Feb-20 21:34N 34°32' E 135°19'0 0.0
2015-Feb-20 20:34N 34°32' E 135°19'0 0.0
2015-Feb-20 19:33N 34°32' E 135°19'0 0.0
2015-Feb-20 18:33N 34°32' E 135°19'0 0.0
2015-Feb-20 17:33N 34°32' E 135°19'0 0.0
2015-Feb-20 16:33N 34°32' E 135°19'0 0.0
2015-Feb-20 15:34N 34°32' E 135°19'0 0.0
2015-Feb-20 14:34N 34°32' E 135°19'0 0.0
2015-Feb-20 13:33N 34°32' E 135°19'0 0.0
2015-Feb-20 12:34N 34°32' E 135°19'1 0.7
2015-Feb-20 11:33N 34°32' E 135°18'1313.1
2015-Feb-20 10:33N 34°36' E 135°03'27 1.1
2015-Feb-19 10:12N 34°09' E 135°01'6 8.6
2015-Feb-19 09:31N 34°07' E 135°08'0 0.0
2015-Feb-19 08:31N 34°07' E 135°08'0 0.0
2015-Feb-19 07:33N 34°07' E 135°08'0 0.0
2015-Feb-19 06:33N 34°07' E 135°08'0 0.0
2015-Feb-19 05:33N 34°07' E 135°08'1 1.2
2015-Feb-19 04:33N 34°08' E 135°07'3 2.7
2015-Feb-19 03:34N 34°09' E 135°09'0 0.0
2015-Feb-19 02:33N 34°09' E 135°09'0 0.0
2015-Feb-19 01:30N 34°09' E 135°09'0 0.0
2015-Feb-19 00:34N 34°09' E 135°09'0 0.0
2015-Feb-18 23:34N 34°09' E 135°09'0 0.0
2015-Feb-18 22:34N 34°09' E 135°09'0 0.0
2015-Feb-18 21:33N 34°09' E 135°09'3 3.2
2015-Feb-18 20:34N 34°10' E 135°05'1110.7
2015-Feb-18 19:32N 34°20' E 134°59'1313.3
2015-Feb-18 18:32N 34°33' E 135°03'  
2015-Feb-15 15:32N 34°37' E 134°56'8 8.2
2015-Feb-15 14:33N 34°35' E 135°05'2310.8
2015-Feb-15 12:28N 34°13' E 134°59'230 8.5
2015-Feb-14 09:26N 35°03' E 139°32'1112.0
2015-Feb-14 08:33N 35°09' E 139°43'1110.9
2015-Feb-14 07:34N 35°20' E 139°42'6 5.7
2015-Feb-14 06:33N 35°25' E 139°39'0 0.0
2015-Feb-14 05:34N 35°25' E 139°39'0 0.0
2015-Feb-14 04:34N 35°25' E 139°39'3 2.7
2015-Feb-14 03:33N 35°22' E 139°40'0 0.0
2015-Feb-14 02:33N 35°22' E 139°40'0 0.0
2015-Feb-14 01:33N 35°22' E 139°41'0 0.0
2015-Feb-14 00:33N 35°22' E 139°41'0 0.0
2015-Feb-13 23:33N 35°22' E 139°41'0 0.0
2015-Feb-13 22:33N 35°22' E 139°41'0 0.0
2015-Feb-13 21:33N 35°22' E 139°41'0 0.0
2015-Feb-13 20:33N 35°22' E 139°41'0 0.0
2015-Feb-13 19:34N 35°22' E 139°41'0 0.0
2015-Feb-13 18:33N 35°22' E 139°41'0 0.0
2015-Feb-13 17:34N 35°22' E 139°41'0 0.0
2015-Feb-13 16:33N 35°22' E 139°41'6 6.0
2015-Feb-13 15:33N 35°17' E 139°45'1212.3
2015-Feb-13 14:34N 35°05' E 139°44'10 0.4
2015-Feb-12 12:18N 35°04' E 139°32'810.8
2015-Feb-12 11:34N 35°07' E 139°41'1010.0
2015-Feb-12 10:31N 35°17' E 139°45'1010.0
2015-Feb-12 09:33N 35°26' E 139°46'12 2.0
2015-Feb-12 03:19N 35°31' E 139°59'  

Dump ship's entire track history